createdAt,value
2024-01-18T04:21:20.406Z,35.51
2024-01-18T04:22:20.374Z,35.63
2024-01-18T04:23:20.380Z,35.53
2024-01-18T04:24:20.432Z,35.40
2024-01-18T04:25:20.374Z,35.47
2024-01-18T04:26:20.376Z,35.54
2024-01-18T04:27:20.429Z,35.49
2024-01-18T04:28:20.396Z,35.49
2024-01-18T04:29:20.404Z,35.49
2024-01-18T04:30:20.429Z,35.48
2024-01-18T04:31:27.599Z,35.49
2024-01-18T04:32:27.633Z,35.40
2024-01-18T04:33:27.624Z,35.48
2024-01-18T04:34:27.636Z,35.40
2024-01-18T04:35:27.576Z,35.44
2024-01-18T04:36:27.651Z,35.38
2024-01-18T04:37:27.597Z,35.47
2024-01-18T04:38:27.571Z,35.53
2024-01-18T04:39:27.650Z,35.49
2024-01-18T04:40:27.597Z,35.49
2024-01-18T04:41:27.586Z,35.39
2024-01-18T04:42:27.603Z,35.51
2024-01-18T04:43:27.582Z,35.52
2024-01-18T04:44:27.596Z,35.52
2024-01-18T04:45:27.673Z,35.52
2024-01-18T04:46:27.626Z,35.40
2024-01-18T04:47:27.615Z,35.39
2024-01-18T04:48:27.616Z,35.33
2024-01-18T04:49:27.641Z,35.33
2024-01-18T04:50:27.598Z,35.40
2024-01-18T04:51:27.626Z,35.46
2024-01-18T04:52:27.599Z,35.44
2024-01-18T04:53:27.622Z,35.40
2024-01-18T04:54:27.672Z,35.46
2024-01-18T04:55:27.579Z,35.40
2024-01-18T04:56:27.600Z,35.44
2024-01-18T04:57:27.638Z,35.45
2024-01-18T04:58:27.631Z,35.45
2024-01-18T04:59:27.627Z,35.39
2024-01-18T05:00:27.633Z,35.40
2024-01-18T05:01:27.644Z,35.34
2024-01-18T05:02:27.642Z,35.35
2024-01-18T05:03:27.670Z,35.34
2024-01-18T05:04:27.731Z,35.34
2024-01-18T05:05:27.841Z,35.30
2024-01-18T05:06:28.476Z,35.29
2024-01-18T05:07:27.884Z,35.35
2024-01-18T05:08:27.967Z,35.42
2024-01-18T05:09:27.968Z,35.33
2024-01-18T05:10:28.029Z,35.34
2024-01-18T05:11:28.105Z,35.39
2024-01-18T05:12:28.168Z,35.31
2024-01-18T05:13:28.198Z,35.34
2024-01-18T05:14:28.295Z,35.29
2024-01-18T05:15:28.382Z,35.26
2024-01-18T05:16:28.366Z,35.30
2024-01-18T05:17:28.480Z,35.28
2024-01-18T05:18:28.563Z,35.28
2024-01-18T05:19:28.598Z,35.23
2024-01-18T05:20:28.624Z,35.30
2024-01-18T05:21:28.711Z,35.28
2024-01-18T05:22:28.721Z,35.23
2024-01-18T05:23:28.803Z,35.22
2024-01-18T05:24:28.893Z,35.22
2024-01-18T05:25:28.903Z,35.22
2024-01-18T05:26:28.977Z,35.24
2024-01-18T05:27:29.105Z,35.21
2024-01-18T05:28:29.083Z,35.24
2024-01-18T05:29:29.151Z,35.28
2024-01-18T05:30:29.256Z,35.16
2024-01-18T05:31:29.251Z,35.14
2024-01-18T05:32:29.355Z,35.21
2024-01-18T05:33:29.553Z,35.31
2024-01-18T05:34:29.529Z,35.16
2024-01-18T05:35:29.509Z,35.12
2024-01-18T05:36:29.612Z,35.17
2024-01-18T05:37:29.602Z,35.11
2024-01-18T05:38:31.639Z,35.20
2024-01-18T05:39:29.716Z,35.13
2024-01-18T05:40:29.657Z,34.95
2024-01-18T05:41:29.703Z,35.07
2024-01-18T05:42:29.726Z,35.08
2024-01-18T05:43:29.673Z,35.07
2024-01-18T05:44:29.682Z,35.08
2024-01-18T05:45:29.678Z,35.17
2024-01-18T05:46:29.681Z,35.12
2024-01-18T05:47:29.695Z,35.17
2024-01-18T05:48:29.707Z,35.08
2024-01-18T05:49:29.729Z,35.13
2024-01-18T05:50:29.687Z,35.13
2024-01-18T05:51:29.701Z,35.17
2024-01-18T05:52:29.692Z,35.25
2024-01-18T05:53:29.682Z,35.35
2024-01-18T05:54:29.722Z,35.58
2024-01-18T05:55:29.673Z,36.13
2024-01-18T05:56:29.704Z,36.37
2024-01-18T05:57:29.743Z,36.31
2024-01-18T05:58:29.681Z,36.22
2024-01-18T05:59:29.700Z,36.24
2024-01-18T06:00:29.784Z,36.19
2024-01-18T06:01:29.701Z,36.32
2024-01-18T06:02:29.721Z,36.50
2024-01-18T06:03:29.733Z,36.54
2024-01-18T06:04:29.765Z,36.71
2024-01-18T06:05:29.667Z,36.80
2024-01-18T06:06:29.751Z,36.86
2024-01-18T06:07:29.739Z,37.23
2024-01-18T06:08:29.727Z,37.54
2024-01-18T06:09:29.802Z,37.86
2024-01-18T06:10:29.827Z,38.38
2024-01-18T06:11:29.838Z,38.79
2024-01-18T06:12:30.012Z,39.20
2024-01-18T06:13:29.966Z,40.37
2024-01-18T06:14:30.027Z,40.41
2024-01-18T06:15:30.058Z,40.32
2024-01-18T06:16:30.089Z,40.30
2024-01-18T06:17:30.274Z,40.02
2024-01-18T06:18:30.377Z,40.12
2024-01-18T06:19:30.368Z,40.47
2024-01-18T06:20:30.283Z,41.12
2024-01-18T06:21:30.350Z,42.09
2024-01-18T06:22:30.372Z,42.68
2024-01-18T06:23:30.433Z,42.94
2024-01-18T06:24:30.659Z,43.11
2024-01-18T06:25:30.492Z,43.28
2024-01-18T06:26:30.535Z,43.42
2024-01-18T06:27:30.662Z,43.50
2024-01-18T06:28:30.621Z,43.55
2024-01-18T06:29:30.659Z,43.80
2024-01-18T06:30:30.724Z,43.98
2024-01-18T06:31:30.764Z,43.99
2024-01-18T06:32:30.803Z,44.03
2024-01-18T06:33:31.008Z,43.96
2024-01-18T06:34:30.920Z,44.06
2024-01-18T06:35:30.934Z,44.37
2024-01-18T06:36:31.109Z,44.90
2024-01-18T06:37:31.039Z,44.81
2024-01-18T06:38:31.079Z,45.37
2024-01-18T06:39:31.198Z,46.11
2024-01-18T06:40:31.194Z,46.25
2024-01-18T06:41:31.258Z,46.21
2024-01-18T06:42:31.314Z,45.88
2024-01-18T06:43:31.298Z,46.32
2024-01-18T06:44:31.358Z,46.33
2024-01-18T06:45:31.462Z,46.21
2024-01-18T06:46:31.496Z,46.43
2024-01-18T06:47:31.480Z,46.59
2024-01-18T06:48:31.556Z,47.72
2024-01-18T06:49:31.624Z,48.56
2024-01-18T06:50:31.584Z,48.46
2024-01-18T06:51:31.694Z,47.56
2024-01-18T06:52:31.633Z,47.87
2024-01-18T06:53:31.798Z,47.72
2024-01-18T06:54:31.773Z,47.60
2024-01-18T06:55:31.756Z,48.21
2024-01-18T06:56:31.797Z,47.53
2024-01-18T06:57:31.818Z,47.77
2024-01-18T06:58:31.862Z,47.81
2024-01-18T06:59:31.829Z,47.88
2024-01-18T07:00:32.119Z,48.01
2024-01-18T07:01:31.945Z,48.31
2024-01-18T07:02:31.919Z,48.65
2024-01-18T07:03:31.942Z,48.54
2024-01-18T07:04:31.984Z,48.36
2024-01-18T07:05:31.962Z,48.32
2024-01-18T07:06:32.028Z,48.75
2024-01-18T07:07:31.992Z,48.96
2024-01-18T07:08:32.019Z,48.33
2024-01-18T07:09:32.049Z,48.39
2024-01-18T07:10:32.005Z,48.45
2024-01-18T07:11:32.015Z,48.50
2024-01-18T07:12:32.057Z,48.54
2024-01-18T07:13:32.028Z,48.57
2024-01-18T07:14:34.375Z,48.53
2024-01-18T07:15:32.124Z,48.54
2024-01-18T07:16:32.060Z,48.83
2024-01-18T07:17:32.239Z,48.64
2024-01-18T07:18:32.083Z,48.71
2024-01-18T07:19:32.144Z,48.89
2024-01-18T07:20:32.083Z,48.76
2024-01-18T07:21:32.110Z,48.93
2024-01-18T07:22:32.078Z,48.88
2024-01-18T07:23:32.067Z,48.87
2024-01-18T07:24:32.205Z,48.96
2024-01-18T07:25:32.052Z,48.74
2024-01-18T07:26:32.062Z,48.88
2024-01-18T07:27:32.105Z,48.93
2024-01-18T07:28:32.057Z,49.10
2024-01-18T07:29:32.080Z,48.83
2024-01-18T07:30:32.073Z,48.96
2024-01-18T07:31:32.071Z,49.21
2024-01-18T07:32:32.093Z,48.96
2024-01-18T07:33:32.226Z,48.93
2024-01-18T07:34:32.212Z,48.86
2024-01-18T07:35:32.067Z,49.11
2024-01-18T07:36:32.176Z,49.22
2024-01-18T07:37:32.075Z,49.11
2024-01-18T07:38:32.095Z,49.07
2024-01-18T07:39:32.107Z,49.02
2024-01-18T07:40:32.075Z,48.93
2024-01-18T07:41:32.078Z,48.84
2024-01-18T07:42:32.170Z,48.92
2024-01-18T07:43:32.101Z,48.68
2024-01-18T07:44:32.091Z,48.65
2024-01-18T07:45:32.113Z,48.50
2024-01-18T07:46:32.093Z,48.09
2024-01-18T07:47:32.099Z,47.54
2024-01-18T07:48:32.102Z,47.48
2024-01-18T07:49:32.333Z,47.23
2024-01-18T07:50:35.874Z,47.23
2024-01-18T07:51:33.092Z,46.83
2024-01-18T07:52:32.088Z,47.03
2024-01-18T07:53:32.071Z,47.03
2024-01-18T07:54:32.154Z,47.13
2024-01-18T07:55:32.200Z,47.24
2024-01-18T07:56:32.100Z,47.28
2024-01-18T07:57:32.091Z,47.30
2024-01-18T07:58:32.102Z,47.28
2024-01-18T07:59:32.094Z,47.24
2024-01-18T08:00:32.905Z,47.23
2024-01-18T08:01:35.686Z,47.21
2024-01-18T08:02:33.255Z,47.15
2024-01-18T08:03:32.309Z,47.20
2024-01-18T08:04:32.294Z,47.10
2024-01-18T08:05:32.303Z,47.41
2024-01-18T08:06:32.352Z,47.25
2024-01-18T08:07:32.260Z,47.44
2024-01-18T08:08:32.792Z,47.61
2024-01-18T08:09:32.384Z,47.66
2024-01-18T08:10:32.242Z,47.69
2024-01-18T08:11:32.266Z,47.72
2024-01-18T08:12:32.419Z,47.70
2024-01-18T08:13:32.385Z,47.71
2024-01-18T08:14:32.443Z,47.67
2024-01-18T08:15:32.527Z,47.61
2024-01-18T08:16:32.521Z,47.58
2024-01-18T08:17:32.722Z,47.59
2024-01-18T08:18:32.776Z,47.63
2024-01-18T08:19:32.905Z,47.40
2024-01-18T08:20:32.755Z,47.65
2024-01-18T08:21:32.891Z,47.76
2024-01-18T08:22:32.831Z,47.81
2024-01-18T08:23:32.890Z,48.00
2024-01-18T08:24:32.942Z,48.01
2024-01-18T08:25:33.003Z,47.98
2024-01-18T08:26:33.029Z,47.89
2024-01-18T08:27:33.145Z,47.88
2024-01-18T08:28:33.134Z,47.95
2024-01-18T08:29:33.181Z,47.79
2024-01-18T08:30:33.260Z,47.77
2024-01-18T08:31:33.264Z,47.75
2024-01-18T08:33:00.972Z,47.78
2024-01-18T08:34:00.981Z,47.65
2024-01-18T08:35:00.921Z,47.67
2024-01-18T08:36:00.939Z,47.78
2024-01-18T08:37:00.962Z,47.65
2024-01-18T08:38:00.905Z,47.98
2024-01-18T08:39:01.013Z,47.93
2024-01-18T08:40:01.060Z,47.96
2024-01-18T08:41:00.910Z,47.99
2024-01-18T08:42:00.948Z,47.86
2024-01-18T08:43:00.929Z,47.40
2024-01-18T08:44:00.943Z,46.54
2024-01-18T08:45:00.924Z,46.00
2024-01-18T08:46:00.969Z,45.82
2024-01-18T08:47:00.906Z,45.93
2024-01-18T08:48:00.957Z,46.05
2024-01-18T08:49:00.996Z,45.73
2024-01-18T08:50:00.949Z,45.89
2024-01-18T08:51:01.048Z,46.26
2024-01-18T08:52:00.984Z,46.78
2024-01-18T08:53:00.930Z,46.88
2024-01-18T08:54:00.949Z,47.00
2024-01-18T08:55:00.948Z,47.14
2024-01-18T08:56:00.932Z,47.41
2024-01-18T08:57:00.947Z,47.45
2024-01-18T08:58:00.973Z,47.49
2024-01-18T08:59:00.973Z,47.65
2024-01-18T09:00:01.040Z,47.74
2024-01-18T09:01:01.124Z,47.81
2024-01-18T09:02:06.931Z,48.02
2024-01-18T09:03:02.133Z,47.98
2024-01-18T09:04:01.076Z,48.18
2024-01-18T09:05:01.042Z,48.25
2024-01-18T09:06:01.000Z,48.31
2024-01-18T09:07:01.056Z,48.47
2024-01-18T09:08:03.759Z,48.53
2024-01-18T09:09:01.033Z,48.61
2024-01-18T09:10:00.970Z,48.68
2024-01-18T09:11:01.029Z,48.68
2024-01-18T09:12:00.961Z,48.78
2024-01-18T09:13:00.951Z,48.92
2024-01-18T09:14:00.949Z,48.85
2024-01-18T09:15:00.969Z,48.92
2024-01-18T09:16:01.011Z,48.87
2024-01-18T09:17:00.983Z,49.45
2024-01-18T09:18:00.993Z,49.37
2024-01-18T09:19:10.780Z,49.42
2024-01-18T09:20:02.137Z,49.38
2024-01-18T09:21:01.187Z,49.61
2024-01-18T09:22:01.000Z,49.78
2024-01-18T09:23:09.078Z,50.02
2024-01-18T09:24:01.996Z,50.00
2024-01-18T09:25:01.129Z,50.09
2024-01-18T09:26:01.001Z,50.08
2024-01-18T09:27:00.998Z,50.13
2024-01-18T09:28:00.989Z,50.09
2024-01-18T09:29:01.002Z,50.27
2024-01-18T09:30:01.032Z,50.36
2024-01-18T09:31:01.212Z,50.28
2024-01-18T09:32:01.004Z,50.36
2024-01-18T09:33:01.014Z,50.51
2024-01-18T09:34:01.057Z,50.63
2024-01-18T09:35:01.064Z,50.80
2024-01-18T09:36:00.990Z,50.76
2024-01-18T09:37:01.165Z,50.58
2024-01-18T09:38:01.015Z,50.67
2024-01-18T09:39:01.023Z,50.62
2024-01-18T09:40:01.115Z,50.75
2024-01-18T09:41:01.035Z,50.83
2024-01-18T09:42:01.017Z,50.82
2024-01-18T09:43:01.022Z,50.72
2024-01-18T09:44:00.982Z,50.65
2024-01-18T09:45:01.039Z,50.72
2024-01-18T09:46:01.024Z,50.94
2024-01-18T09:47:04.533Z,51.61
2024-01-18T09:48:04.593Z,51.44
2024-01-18T09:49:05.123Z,50.91
2024-01-18T09:50:04.584Z,51.21
2024-01-18T09:51:04.542Z,52.15
2024-01-18T09:52:04.526Z,51.81
2024-01-18T09:53:04.561Z,51.90
2024-01-18T09:54:04.608Z,52.44
2024-01-18T09:55:04.628Z,52.11
2024-01-18T09:56:04.554Z,52.25
2024-01-18T09:57:04.536Z,52.06
2024-01-18T09:58:04.553Z,52.12
2024-01-18T09:59:04.546Z,51.94
2024-01-18T10:00:06.537Z,51.92
2024-01-18T10:01:04.676Z,52.04
2024-01-18T10:02:04.559Z,51.86
2024-01-18T10:03:04.575Z,51.80
2024-01-18T10:04:04.550Z,51.86
2024-01-18T10:05:04.585Z,52.04
2024-01-18T10:06:04.600Z,51.96
2024-01-18T10:07:05.434Z,52.14
2024-01-18T10:08:04.737Z,52.23
2024-01-18T10:09:04.576Z,52.40
2024-01-18T10:10:04.570Z,52.46
2024-01-18T10:11:04.574Z,52.46
2024-01-18T10:12:04.582Z,52.46
2024-01-18T10:13:06.207Z,52.51
2024-01-18T10:14:04.564Z,52.45
2024-01-18T10:15:04.604Z,52.33
2024-01-18T10:16:04.578Z,52.53
2024-01-18T10:17:04.610Z,52.34
2024-01-18T10:18:04.660Z,52.38
2024-01-18T10:19:04.705Z,52.45
2024-01-18T10:20:04.621Z,52.35
2024-01-18T10:21:04.583Z,52.46
2024-01-18T10:22:04.599Z,52.42
2024-01-18T10:23:04.967Z,52.40
2024-01-18T10:24:04.592Z,52.34
2024-01-18T10:25:04.610Z,52.20
2024-01-18T10:26:04.701Z,52.27
2024-01-18T10:27:04.793Z,52.34
2024-01-18T10:28:04.870Z,52.16
2024-01-18T10:29:04.994Z,52.38
2024-01-18T10:30:04.967Z,52.22
2024-01-18T10:31:05.024Z,52.28
2024-01-18T10:32:05.157Z,52.35
2024-01-18T10:33:05.228Z,52.25
2024-01-18T10:34:05.385Z,52.30
2024-01-18T10:35:05.483Z,52.27
2024-01-18T10:36:05.375Z,52.22
2024-01-18T10:37:05.441Z,52.34
2024-01-18T10:38:05.506Z,52.42
2024-01-18T10:39:05.596Z,52.33
2024-01-18T10:40:05.654Z,52.58
2024-01-18T10:41:05.704Z,52.24
2024-01-18T10:42:05.891Z,52.21
2024-01-18T10:43:05.867Z,52.14
2024-01-18T10:44:06.744Z,52.20
2024-01-18T10:45:06.250Z,52.46
2024-01-18T10:46:06.084Z,53.10
2024-01-18T10:47:06.130Z,52.81
2024-01-18T10:48:06.251Z,52.88
2024-01-18T10:49:06.341Z,52.81
2024-01-18T10:50:06.394Z,53.48
2024-01-18T10:51:06.469Z,53.47
2024-01-18T10:52:06.493Z,53.07
2024-01-18T10:53:06.538Z,52.97
2024-01-18T10:54:08.711Z,52.96
2024-01-18T10:55:09.117Z,52.89
2024-01-18T10:56:06.779Z,52.94
2024-01-18T10:57:06.684Z,52.93
2024-01-18T10:58:06.609Z,52.96
2024-01-18T10:59:06.573Z,53.01
2024-01-18T11:00:06.661Z,52.90
2024-01-18T11:01:06.718Z,53.23
2024-01-18T11:02:06.614Z,53.27
2024-01-18T11:03:06.678Z,53.20
2024-01-18T11:04:06.612Z,53.15
2024-01-18T11:05:06.653Z,53.24
2024-01-18T11:06:06.691Z,53.31
2024-01-18T11:07:06.756Z,53.36
2024-01-18T11:08:06.630Z,53.40
2024-01-18T11:09:06.685Z,53.39
2024-01-18T11:10:06.610Z,53.52
2024-01-18T11:11:06.627Z,53.44
2024-01-18T11:12:06.829Z,53.58
2024-01-18T11:13:06.634Z,53.55
2024-01-18T11:14:06.597Z,53.47
2024-01-18T11:15:06.728Z,53.45
2024-01-18T11:16:06.661Z,53.42
2024-01-18T11:17:07.598Z,53.74
2024-01-18T11:18:06.765Z,53.85
2024-01-18T11:19:06.724Z,53.84
2024-01-18T11:20:06.696Z,53.74
2024-01-18T11:21:06.633Z,53.94
2024-01-18T11:22:06.654Z,53.86
2024-01-18T11:23:06.749Z,54.02
2024-01-18T11:24:06.758Z,54.15
2024-01-18T11:25:06.643Z,53.99
2024-01-18T11:26:06.700Z,53.92
2024-01-18T11:27:06.766Z,54.23
2024-01-18T11:28:06.696Z,53.96
2024-01-18T11:29:06.733Z,54.34
2024-01-18T11:30:06.691Z,54.18
2024-01-18T11:31:06.831Z,53.66
2024-01-18T11:32:06.844Z,53.53
2024-01-18T11:33:06.696Z,53.27
2024-01-18T11:34:06.747Z,53.27
2024-01-18T11:35:06.733Z,53.23
2024-01-18T11:36:06.764Z,53.28
2024-01-18T11:37:06.671Z,53.21
2024-01-18T11:38:06.646Z,53.15
2024-01-18T11:39:06.694Z,53.15
2024-01-18T11:40:06.667Z,53.16
2024-01-18T11:41:06.676Z,53.07
2024-01-18T11:42:06.685Z,52.89
2024-01-18T11:43:06.795Z,52.93
2024-01-18T11:44:06.809Z,52.81
2024-01-18T11:45:06.890Z,52.73
2024-01-18T11:46:07.156Z,52.58
2024-01-18T11:47:07.032Z,52.58
2024-01-18T11:48:07.134Z,52.55
2024-01-18T11:49:07.303Z,52.58
2024-01-18T11:50:07.384Z,52.50
2024-01-18T11:51:07.267Z,52.43
2024-01-18T11:52:07.364Z,52.47
2024-01-18T11:53:07.414Z,52.43
2024-01-18T11:54:07.622Z,52.35
2024-01-18T11:55:07.568Z,52.31
2024-01-18T11:56:07.645Z,52.33
2024-01-18T11:57:07.735Z,52.30
2024-01-18T11:58:07.717Z,52.29
2024-01-18T11:59:07.753Z,52.16
2024-01-18T12:00:07.907Z,52.09
2024-01-18T12:01:07.841Z,52.00
2024-01-18T12:02:07.776Z,51.98
2024-01-18T12:03:07.886Z,51.97
2024-01-18T12:04:07.880Z,51.93
2024-01-18T12:05:07.874Z,52.08
2024-01-18T12:06:07.852Z,52.15
2024-01-18T12:07:07.968Z,52.13
2024-01-18T12:08:07.848Z,52.14
2024-01-18T12:09:07.996Z,52.18
2024-01-18T12:10:07.879Z,52.23
2024-01-18T12:11:07.864Z,52.14
2024-01-18T12:12:08.097Z,52.15
2024-01-18T12:13:07.881Z,52.10
2024-01-18T12:14:07.937Z,52.10
2024-01-18T12:15:08.125Z,52.02
2024-01-18T12:16:07.890Z,52.01
2024-01-18T12:17:07.899Z,51.86
2024-01-18T12:18:07.978Z,51.72
2024-01-18T12:19:07.965Z,51.66
2024-01-18T12:20:08.055Z,51.69
2024-01-18T12:21:07.934Z,51.71
2024-01-18T12:22:07.941Z,51.82
2024-01-18T12:23:07.935Z,51.89
2024-01-18T12:24:07.990Z,51.95
2024-01-18T12:25:08.002Z,51.90
2024-01-18T12:26:07.963Z,51.90
2024-01-18T12:27:08.005Z,51.96
2024-01-18T12:28:08.008Z,51.94
2024-01-18T12:29:08.028Z,51.93
2024-01-18T12:30:08.098Z,51.92
2024-01-18T12:31:08.064Z,51.89
2024-01-18T12:32:08.091Z,52.08
2024-01-18T12:33:08.151Z,51.91
2024-01-18T12:34:08.123Z,51.94
2024-01-18T12:35:08.124Z,51.95
2024-01-18T12:37:08.170Z,51.91
2024-01-18T12:38:08.158Z,51.93
2024-01-18T12:39:08.206Z,52.16
2024-01-18T12:40:08.194Z,52.05
2024-01-18T12:41:08.272Z,52.12
2024-01-18T12:42:08.220Z,52.10
2024-01-18T12:43:08.247Z,52.08
2024-01-18T12:44:08.251Z,52.05
2024-01-18T12:45:08.270Z,51.98
2024-01-18T12:46:08.369Z,51.94
2024-01-18T12:47:08.296Z,51.86
2024-01-18T12:48:08.504Z,51.82
2024-01-18T12:49:08.457Z,51.80
2024-01-18T12:50:08.448Z,51.81
2024-01-18T12:51:08.343Z,51.74
2024-01-18T12:52:08.392Z,51.87
2024-01-18T12:53:09.658Z,51.99
2024-01-18T12:54:08.414Z,52.18
2024-01-18T12:55:08.418Z,52.23
2024-01-18T12:56:08.433Z,52.24
2024-01-18T12:57:08.413Z,52.23
2024-01-18T12:58:08.465Z,52.20
2024-01-18T12:59:08.475Z,52.14
2024-01-18T13:00:08.507Z,52.25
2024-01-18T13:01:08.649Z,52.29
2024-01-18T13:02:08.529Z,52.31
2024-01-18T13:03:08.527Z,52.27
2024-01-18T13:04:08.594Z,52.29
2024-01-18T13:05:08.581Z,52.29
2024-01-18T13:06:08.648Z,52.33
2024-01-18T13:07:08.669Z,52.43
2024-01-18T13:08:08.731Z,52.50
2024-01-18T13:09:08.645Z,52.57
2024-01-18T13:10:08.639Z,52.65
2024-01-18T13:11:08.658Z,52.80
2024-01-18T13:12:08.708Z,52.74
2024-01-18T13:13:08.699Z,52.55
2024-01-18T13:14:08.718Z,52.49
2024-01-18T13:15:08.756Z,52.45
2024-01-18T13:16:08.810Z,52.49
2024-01-18T13:17:08.814Z,52.55
2024-01-18T13:18:08.873Z,52.57
2024-01-18T13:19:08.906Z,52.63
2024-01-18T13:20:08.991Z,52.65
2024-01-18T13:21:08.889Z,52.66
2024-01-18T13:22:08.934Z,52.58
2024-01-18T13:23:08.936Z,52.57
2024-01-18T13:24:08.961Z,52.60
2024-01-18T13:25:09.037Z,52.67
2024-01-18T13:26:09.017Z,52.63
2024-01-18T13:27:09.046Z,52.74
2024-01-18T13:28:09.075Z,52.86
2024-01-18T13:29:09.134Z,52.84
2024-01-18T13:30:09.144Z,52.93
2024-01-18T13:31:09.178Z,52.98
2024-01-18T13:32:09.212Z,53.03
2024-01-18T13:33:11.472Z,53.00
2024-01-18T13:34:09.253Z,52.93
2024-01-18T13:35:09.345Z,52.93
2024-01-18T13:36:09.250Z,52.87
2024-01-18T13:37:12.960Z,52.93
2024-01-18T13:38:11.942Z,52.75
2024-01-18T13:39:09.236Z,52.58
2024-01-18T13:40:09.258Z,52.65
2024-01-18T13:41:09.250Z,52.76
2024-01-18T13:42:09.243Z,52.85
2024-01-18T13:43:09.232Z,52.98
2024-01-18T13:44:09.265Z,53.06
2024-01-18T13:45:09.247Z,53.13
2024-01-18T13:46:09.304Z,53.07
2024-01-18T13:47:09.245Z,53.12
2024-01-18T13:48:09.330Z,53.15
2024-01-18T13:49:09.273Z,53.09
2024-01-18T13:50:09.351Z,53.09
2024-01-18T13:51:09.256Z,53.01
2024-01-18T13:52:09.297Z,53.08
2024-01-18T13:53:09.248Z,53.21
2024-01-18T13:54:09.261Z,53.19
2024-01-18T13:55:09.445Z,53.31
2024-01-18T13:56:10.448Z,53.41
2024-01-18T13:57:09.228Z,53.49
2024-01-18T13:58:09.276Z,53.63
2024-01-18T13:59:09.271Z,53.73
2024-01-18T14:00:09.250Z,53.67
2024-01-18T14:01:09.328Z,53.52
2024-01-18T14:02:09.256Z,53.43
2024-01-18T14:03:09.286Z,53.40
2024-01-18T14:04:09.260Z,53.40
2024-01-18T14:05:09.289Z,53.42
2024-01-18T14:06:09.330Z,53.45
2024-01-18T14:07:09.492Z,53.54
2024-01-18T14:08:10.114Z,53.28
2024-01-18T14:09:09.393Z,53.25
2024-01-18T14:10:09.505Z,53.29
2024-01-18T14:11:12.438Z,53.08
2024-01-18T14:12:09.493Z,52.87
2024-01-18T14:13:09.494Z,52.93
2024-01-18T14:14:09.484Z,53.10
2024-01-18T14:15:09.514Z,53.14
2024-01-18T14:16:10.731Z,53.30
2024-01-18T14:17:09.506Z,53.39
2024-01-18T14:18:09.561Z,53.47
2024-01-18T14:19:09.557Z,53.64
2024-01-18T14:20:09.643Z,53.75
2024-01-18T14:21:09.705Z,53.80
2024-01-18T14:22:09.644Z,53.72
2024-01-18T14:23:09.490Z,53.61
2024-01-18T14:24:10.166Z,53.55
2024-01-18T14:25:09.533Z,53.49
2024-01-18T14:26:09.504Z,53.25
2024-01-18T14:27:09.503Z,53.34
2024-01-18T14:28:09.623Z,53.41
2024-01-18T14:29:09.573Z,53.57
2024-01-18T14:30:09.597Z,53.60
2024-01-18T14:31:09.675Z,53.72
2024-01-18T14:32:09.657Z,53.82
2024-01-18T14:33:09.776Z,53.99
2024-01-18T14:34:09.815Z,53.98
2024-01-18T14:35:09.835Z,54.02
2024-01-18T14:36:09.812Z,53.99
2024-01-18T14:37:09.892Z,54.06
2024-01-18T14:38:09.908Z,54.05
2024-01-18T14:39:09.927Z,54.07
2024-01-18T14:40:10.005Z,54.21
2024-01-18T14:41:10.021Z,54.24
2024-01-18T14:42:10.053Z,54.21
2024-01-18T14:43:10.095Z,54.40
2024-01-18T14:44:10.134Z,54.50
2024-01-18T14:45:10.203Z,54.56
2024-01-18T14:46:10.267Z,54.53
2024-01-18T14:47:10.271Z,54.57
2024-01-18T14:48:10.376Z,54.70
2024-01-18T14:49:10.405Z,54.71
2024-01-18T14:50:10.442Z,54.93
2024-01-18T14:51:10.467Z,54.95
2024-01-18T14:52:10.469Z,54.99
2024-01-18T14:53:10.546Z,54.87
2024-01-18T14:54:10.531Z,54.99
2024-01-18T14:55:10.616Z,55.07
2024-01-18T14:56:10.635Z,55.09
2024-01-18T14:57:10.679Z,55.18
2024-01-18T14:58:10.760Z,55.20
2024-01-18T14:59:10.771Z,55.35
2024-01-18T15:00:10.802Z,55.34
2024-01-18T15:01:10.917Z,55.38
2024-01-18T15:02:10.879Z,55.38
2024-01-18T15:03:10.956Z,55.33
2024-01-18T15:04:11.094Z,55.30
2024-01-18T15:05:11.194Z,55.37
2024-01-18T15:06:11.038Z,55.38
2024-01-18T15:07:11.161Z,55.40
2024-01-18T15:08:11.248Z,55.46
2024-01-18T15:09:11.200Z,55.45
2024-01-18T15:10:11.307Z,55.49
2024-01-18T15:11:11.307Z,55.58
2024-01-18T15:12:11.317Z,55.62
2024-01-18T15:13:11.395Z,55.85
2024-01-18T15:14:11.457Z,55.86
2024-01-18T15:15:11.521Z,55.84
2024-01-18T15:16:13.013Z,55.97
2024-01-18T15:17:11.509Z,55.92
2024-01-18T15:18:11.538Z,55.89
2024-01-18T15:19:17.222Z,55.96
2024-01-18T15:20:12.680Z,55.97
2024-01-18T15:21:11.511Z,55.93
2024-01-18T15:22:11.538Z,55.94
2024-01-18T15:23:12.292Z,55.94
2024-01-18T15:24:11.543Z,55.85
2024-01-18T15:25:11.620Z,55.87
2024-01-18T15:26:11.517Z,56.12
2024-01-18T15:27:11.573Z,56.13
2024-01-18T15:28:11.554Z,56.24
2024-01-18T15:29:11.525Z,56.34
2024-01-18T15:30:11.527Z,56.44
2024-01-18T15:31:11.547Z,56.40
2024-01-18T15:32:11.641Z,56.47
2024-01-18T15:33:11.903Z,56.52
2024-01-18T15:34:11.768Z,56.52
2024-01-18T15:35:12.086Z,56.39
2024-01-18T15:36:11.788Z,56.28
2024-01-18T15:37:11.891Z,56.24
2024-01-18T15:38:11.908Z,56.20
2024-01-18T15:39:11.936Z,56.22
2024-01-18T15:40:12.016Z,56.26
2024-01-18T15:41:12.022Z,56.37
2024-01-18T15:42:12.077Z,56.51
2024-01-18T15:43:12.110Z,56.67
2024-01-18T15:44:12.179Z,56.75
2024-01-18T15:45:12.251Z,56.91
2024-01-18T15:46:12.262Z,56.91
2024-01-18T15:47:12.321Z,56.85
2024-01-18T15:48:12.372Z,57.02
2024-01-18T15:49:12.428Z,56.97
2024-01-18T15:50:12.512Z,57.06
2024-01-18T15:51:12.464Z,56.84
2024-01-18T15:52:12.539Z,56.78
2024-01-18T15:53:12.557Z,56.73
2024-01-18T15:54:12.647Z,56.73
2024-01-18T15:55:12.812Z,56.78
2024-01-18T15:56:12.707Z,56.87
2024-01-18T15:57:12.743Z,56.96
2024-01-18T15:58:12.777Z,57.09
2024-01-18T15:59:12.865Z,57.19
2024-01-18T16:00:12.919Z,57.36
2024-01-18T16:01:13.115Z,57.34
2024-01-18T16:02:12.969Z,57.36
2024-01-18T16:03:12.988Z,57.46
2024-01-18T16:04:13.094Z,57.41
2024-01-18T16:05:13.194Z,57.41
2024-01-18T16:06:13.194Z,57.35
2024-01-18T16:07:13.166Z,57.40
2024-01-18T16:08:13.232Z,57.25
2024-01-18T16:09:13.281Z,57.25
2024-01-18T16:10:13.392Z,57.27
2024-01-18T16:11:13.355Z,57.40
2024-01-18T16:12:13.508Z,57.56
2024-01-18T16:13:13.436Z,57.68
2024-01-18T16:14:13.485Z,57.64
2024-01-18T16:15:13.638Z,57.57
2024-01-18T16:16:13.619Z,57.10
2024-01-18T16:17:13.622Z,56.88
2024-01-18T16:18:13.680Z,57.00
2024-01-18T16:19:13.814Z,57.03
2024-01-18T16:20:13.791Z,57.13
2024-01-18T16:21:13.860Z,57.03
2024-01-18T16:22:13.880Z,57.06
2024-01-18T16:23:13.921Z,56.93
2024-01-18T16:24:13.975Z,56.89
2024-01-18T16:25:14.014Z,56.81
2024-01-18T16:26:14.069Z,56.86
2024-01-18T16:27:14.148Z,56.89
2024-01-18T16:28:14.203Z,56.95
2024-01-18T16:29:14.202Z,57.04
2024-01-18T16:30:20.207Z,57.07
2024-01-18T16:31:15.342Z,57.20
2024-01-18T16:32:14.269Z,57.26
2024-01-18T16:33:14.422Z,57.26
2024-01-18T16:34:14.338Z,57.44
2024-01-18T16:35:14.332Z,57.31
2024-01-18T16:36:14.338Z,57.38
2024-01-18T16:37:14.276Z,57.50
2024-01-18T16:38:14.304Z,57.34
2024-01-18T16:39:14.288Z,56.95
2024-01-18T16:40:14.291Z,56.76
2024-01-18T16:41:14.257Z,56.73
2024-01-18T16:42:14.380Z,56.83
2024-01-18T16:43:14.369Z,56.98
2024-01-18T16:44:14.437Z,57.05
2024-01-18T16:45:14.638Z,57.14
2024-01-18T16:46:14.489Z,57.10
2024-01-18T16:47:14.547Z,57.22
2024-01-18T16:48:14.727Z,57.18
2024-01-18T16:49:14.823Z,57.23
2024-01-18T16:50:14.687Z,57.11
2024-01-18T16:51:14.781Z,57.17
2024-01-18T16:52:14.809Z,57.11
2024-01-18T16:53:14.816Z,57.24
2024-01-18T16:54:14.910Z,57.19
2024-01-18T16:55:14.974Z,57.14
2024-01-18T16:56:14.996Z,57.04
2024-01-18T16:57:22.429Z,56.92
2024-01-18T16:58:16.090Z,56.66
2024-01-18T16:59:15.061Z,56.34
2024-01-18T17:00:15.158Z,56.54
2024-01-18T17:01:15.086Z,56.63
2024-01-18T17:02:15.090Z,56.81
2024-01-18T17:03:15.063Z,56.90
2024-01-18T17:04:15.063Z,57.06
2024-01-18T17:05:15.211Z,57.13
2024-01-18T17:06:15.140Z,57.18
2024-01-18T17:08:15.201Z,57.20
2024-01-18T17:09:15.092Z,57.02
2024-01-18T17:10:15.139Z,57.10
2024-01-18T17:11:20.436Z,57.16
2024-01-18T17:12:16.212Z,57.12
2024-01-18T17:13:15.210Z,57.10
2024-01-18T17:14:15.214Z,56.68
2024-01-18T17:15:15.205Z,56.50
2024-01-18T17:16:15.203Z,56.48